Time;durP1;ratioP1;P1;durP2;ratioP2;P2;SDS_P1;SDS_P2;PMS_P1;PMS_P2;Temp;Humidity;BMP_temperature;BMP_pressure;BME280_temperature;BME280_humidity;BME280_pressure;Samples;Min_cycle;Max_cycle;Signal;HPM_P1;HPM_P2
2023/04/02 00:05:50;;;;;;;1.33;0.40;;;;;;;5.90;100.00;97113.28;18295665;32;20088;-58
2023/04/02 00:15:56;;;;;;;0.40;0.13;;;;;;;6.12;100.00;97115.13;18295004;32;20113;-58
2023/04/02 00:25:59;;;;;;;1.33;0.20;;;;;;;6.26;100.00;97127.03;18294810;32;20079;-59
2023/04/02 00:36:06;;;;;;;1.40;0.30;;;;;;;6.38;100.00;97135.75;18294269;32;20092;-59
2023/04/02 00:46:20;;;;;;;1.53;0.30;;;;;;;6.42;100.00;97142.22;18294006;32;20069;-59
2023/04/02 00:56:46;;;;;;;0.60;0.20;;;;;;;6.45;100.00;97135.53;18293599;32;20062;-58
2023/04/02 01:06:52;;;;;;;;;;;;;;;6.49;100.00;97128.56;18298792;32;20068;-58
2023/04/02 01:17:14;;;;;;;0.30;0.20;;;;;;;6.45;100.00;97127.47;18304044;32;20329;-59
2023/04/02 01:27:48;;;;;;;0.37;0.13;;;;;;;6.45;100.00;97130.16;18303765;32;20509;-58
2023/04/02 01:38:18;;;;;;;1.00;0.20;;;;;;;6.46;100.00;97147.09;18302531;32;20062;-58
2023/04/02 01:48:26;;;;;;;0.83;0.17;;;;;;;6.31;100.00;97128.97;18302297;32;20072;-58
2023/04/02 01:58:32;;;;;;;0.57;0.23;;;;;;;6.10;100.00;97134.97;18288236;32;20058;-57
2023/04/02 02:08:45;;;;;;;1.17;0.30;;;;;;;6.13;100.00;97146.28;18287583;32;20054;-59
2023/04/02 02:18:55;;;;;;;0.10;0.10;;;;;;;6.07;100.00;97140.84;18300629;32;20073;-58
2023/04/02 02:28:58;;;;;;;0.93;0.37;;;;;;;6.07;100.00;97146.22;18300168;32;20046;-58
2023/04/02 02:39:32;;;;;;;0.33;0.23;;;;;;;6.08;100.00;97163.94;18299679;32;20102;-59
2023/04/02 02:49:40;;;;;;;0.90;0.37;;;;;;;6.14;100.00;97180.91;18299187;32;20378;-59
2023/04/02 02:59:44;;;;;;;1.07;0.50;;;;;;;6.22;100.00;97180.47;18298653;32;20069;-59
2023/04/02 03:10:12;;;;;;;1.60;0.27;;;;;;;6.30;100.00;97176.47;18298194;32;20058;-58
2023/04/02 03:20:24;;;;;;;1.40;0.33;;;;;;;6.40;100.00;97178.44;18297962;32;20459;-56
2023/04/02 03:30:57;;;;;;;0.33;0.20;;;;;;;6.41;100.00;97183.59;18296469;32;20046;-58
2023/04/02 03:41:21;;;;;;;0.50;0.20;;;;;;;6.47;100.00;97191.66;18296731;32;20050;-58
2023/04/02 03:51:32;;;;;;;0.40;0.13;;;;;;;6.45;100.00;97199.97;18296243;32;20399;-59
2023/04/02 04:01:42;;;;;;;0.50;0.20;;;;;;;6.47;100.00;97221.22;18295751;32;20062;-58
2023/04/02 04:11:49;;;;;;;0.83;0.20;;;;;;;6.51;100.00;97214.25;18295449;32;20054;-59
2023/04/02 04:21:55;;;;;;;0.90;0.30;;;;;;;6.55;100.00;97210.81;18294874;32;20058;-59
2023/04/02 04:32:32;;;;;;;0.40;0.20;;;;;;;6.56;100.00;97211.63;18294384;32;20065;-59
2023/04/02 04:42:40;;;;;;;0.63;0.17;;;;;;;6.59;100.00;97221.84;18300957;32;20057;-58
2023/04/02 04:52:43;;;;;;;1.70;0.20;;;;;;;6.58;100.00;97234.50;18305139;32;20484;-58
2023/04/02 05:03:08;;;;;;;0.23;0.10;;;;;;;6.62;100.00;97242.84;18304410;32;20404;-59
2023/04/02 05:13:20;;;;;;;3.93;0.27;;;;;;;6.64;100.00;97246.09;18303947;32;20102;-59
2023/04/02 05:23:27;;;;;;;0.10;0.10;;;;;;;6.68;100.00;97262.53;18303545;32;20118;-58
2023/04/02 05:33:35;;;;;;;1.33;0.30;;;;;;;6.70;100.00;97269.25;18302670;32;20066;-58
2023/04/02 05:43:43;;;;;;;0.30;0.20;;;;;;;6.76;100.00;97275.50;18302783;32;20508;-59
2023/04/02 05:53:52;;;;;;;1.87;0.30;;;;;;;6.83;100.00;97283.34;18301769;32;20053;-58
2023/04/02 06:04:30;;;;;;;0.27;0.20;;;;;;;7.03;100.00;97286.22;18301402;32;20062;-59
2023/04/02 06:14:32;;;;;;;0.60;0.37;;;;;;;7.25;100.00;97294.16;18301499;32;20062;-58
2023/04/02 06:24:38;;;;;;;1.23;0.20;;;;;;;7.32;100.00;97315.47;18300497;32;20105;-58
2023/04/02 06:34:41;;;;;;;0.07;0.07;;;;;;;7.39;100.00;97320.63;18299767;32;20046;-59
2023/04/02 06:44:44;;;;;;;0.80;0.30;;;;;;;7.49;100.00;97333.34;18299863;32;20066;-59
2023/04/02 06:54:47;;;;;;;0.97;0.60;;;;;;;7.64;100.00;97354.97;18298838;32;20141;-59
2023/04/02 07:04:50;;;;;;;1.27;0.47;;;;;;;7.85;100.00;97357.78;18297433;32;20062;-59
2023/04/02 07:14:52;;;;;;;1.83;0.80;;;;;;;8.16;100.00;97371.44;18284410;32;20050;-59
2023/04/02 07:24:55;;;;;;;4.40;2.30;;;;;;;8.51;100.00;97383.47;18297468;32;20063;-58
2023/04/02 07:34:57;;;;;;;3.87;1.53;;;;;;;8.73;100.00;97394.87;18296665;32;20070;-58
2023/04/02 07:45:00;;;;;;;2.57;0.97;;;;;;;9.01;100.00;97405.47;18296777;32;20065;-58
2023/04/02 07:55:12;;;;;;;1.63;0.80;;;;;;;9.32;100.00;97417.94;18283123;32;20101;-58
2023/04/02 08:05:14;;;;;;;1.10;0.33;;;;;;;9.52;100.00;97419.00;18295771;32;20121;-58
2023/04/02 08:15:18;;;;;;;0.93;0.20;;;;;;;10.07;100.00;97432.78;18295102;32;20077;-59
2023/04/02 08:25:22;;;;;;;0.27;0.10;;;;;;;10.51;100.00;97445.69;18294452;32;20080;-59
2023/04/02 08:35:26;;;;;;;;;;;;;;;10.82;100.00;97448.25;18294214;32;20072;-59
2023/04/02 08:45:50;;;;;;;0.23;0.10;;;;;;;10.71;100.00;97465.63;18294434;32;19997;-58
2023/04/02 08:56:04;;;;;;;4.90;1.03;;;;;;;11.00;100.00;97473.06;18280138;32;20066;-59
2023/04/02 09:06:12;;;;;;;0.50;0.10;;;;;;;11.14;100.00;97468.69;18293250;32;20066;-59
2023/04/02 09:16:24;;;;;;;0.20;0.10;;;;;;;12.03;100.00;97483.28;18292862;32;20190;-59
2023/04/02 09:26:31;;;;;;;0.00;0.00;;;;;;;12.37;100.00;97496.81;18296063;32;20082;-59
2023/04/02 09:36:38;;;;;;;0.10;0.05;;;;;;;12.41;99.05;97497.03;18302423;32;20057;-59
2023/04/02 09:46:51;;;;;;;0.93;0.08;;;;;;;12.73;99.62;97508.37;18302502;32;20086;-59
2023/04/02 09:57:03;;;;;;;0.20;0.00;;;;;;;12.81;93.94;97514.00;18301956;32;20501;-59
2023/04/02 10:07:05;;;;;;;0.10;0.10;;;;;;;12.63;84.81;97526.38;18301532;32;20357;-58
2023/04/02 10:17:30;;;;;;;0.17;0.00;;;;;;;12.73;93.49;97532.78;18300365;32;20076;-59
2023/04/02 10:27:55;;;;;;;0.13;0.00;;;;;;;13.18;83.70;97530.66;18286914;32;20103;-59
2023/04/02 10:38:33;;;;;;;0.00;0.00;;;;;;;13.44;87.94;97546.66;18174195;32;20092;-59
2023/04/02 10:48:41;;;;;;;0.05;0.00;;;;;;;14.03;90.28;97541.75;18175979;32;20081;-59
2023/04/02 10:59:01;;;;;;;0.00;0.00;;;;;;;14.21;76.80;97562.69;18172258;32;20082;-59
2023/04/02 11:09:10;;;;;;;0.45;0.00;;;;;;;13.42;86.33;97565.97;18172768;32;20073;-59
2023/04/02 11:19:15;;;;;;;0.10;0.00;;;;;;;13.74;85.51;97578.03;18170776;32;20050;-59
2023/04/02 11:29:26;;;;;;;0.05;0.00;;;;;;;14.44;83.51;97590.03;18192762;32;20474;-59
2023/04/02 11:39:52;;;;;;;0.00;0.00;;;;;;;16.12;85.47;97601.84;18296512;32;20102;-59
2023/04/02 11:49:56;;;;;;;0.20;0.10;;;;;;;16.29;74.46;97609.38;18296276;32;20099;-59
2023/04/02 12:00:10;;;;;;;0.28;0.10;;;;;;;15.70;64.81;97612.81;18295706;32;20066;-59
2023/04/02 12:10:18;;;;;;;0.00;0.00;;;;;;;14.84;70.10;97620.44;18281645;32;20071;-59
2023/04/02 12:20:26;;;;;;;0.22;0.10;;;;;;;14.70;73.60;97617.69;18280976;32;20066;-59
2023/04/02 12:30:29;;;;;;;0.65;0.00;;;;;;;15.03;70.70;97619.56;18294506;32;20041;-59
2023/04/02 12:40:31;;;;;;;0.10;0.10;;;;;;;15.49;68.86;97634.22;18280960;32;20054;-59
2023/04/02 12:50:34;;;;;;;0.25;0.10;;;;;;;15.26;68.08;97634.09;18294140;32;20106;-59
2023/04/02 13:00:39;;;;;;;0.00;0.00;;;;;;;15.13;72.80;97633.00;18296227;32;20062;-59
2023/04/02 13:10:42;;;;;;;0.28;0.10;;;;;;;15.19;74.44;97637.22;18290168;32;20502;-59
2023/04/02 13:21:06;;;;;;;0.95;0.10;;;;;;;15.28;76.52;97650.16;18289298;32;20062;-59
2023/04/02 13:31:18;;;;;;;0.10;0.08;;;;;;;15.66;72.86;97644.50;18289115;32;20069;-59
2023/04/02 13:41:32;;;;;;;0.00;0.00;;;;;;;15.85;75.94;97645.22;18302948;32;20068;-57
2023/04/02 13:51:39;;;;;;;0.35;0.20;;;;;;;15.82;77.14;97653.22;18302462;32;20089;-57
2023/04/02 14:01:47;;;;;;;0.10;0.00;;;;;;;15.47;79.54;97650.88;18301335;32;20335;-57
2023/04/02 14:12:03;;;;;;;0.10;0.00;;;;;;;15.54;86.12;97664.91;18300954;32;20054;-56
2023/04/02 14:22:19;;;;;;;0.17;0.17;;;;;;;15.63;83.26;97664.19;18300589;32;20054;-56
2023/04/02 14:32:50;;;;;;;0.10;0.10;;;;;;;15.76;86.22;97675.09;18286217;32;20050;-57
2023/04/02 14:43:04;;;;;;;0.62;0.05;;;;;;;15.64;81.20;97687.62;18300087;32;20486;-57
2023/04/02 14:53:17;;;;;;;0.00;0.00;;;;;;;15.01;80.54;97692.56;18299476;32;20085;-56
2023/04/02 15:03:23;;;;;;;0.15;0.10;;;;;;;15.30;79.55;97702.44;18272099;32;20070;-58
2023/04/02 15:13:37;;;;;;;0.10;0.00;;;;;;;15.93;82.32;97700.97;18284419;32;20383;-56
2023/04/02 15:24:01;;;;;;;0.00;0.00;;;;;;;16.24;74.27;97687.47;18283395;32;20098;-56
2023/04/02 15:34:12;;;;;;;0.67;0.00;;;;;;;16.15;70.38;97699.44;18283423;32;20054;-57
2023/04/02 15:44:16;;;;;;;0.10;0.08;;;;;;;15.87;63.27;97694.03;18296808;32;20407;-56
2023/04/02 15:54:35;;;;;;;0.30;0.17;;;;;;;15.24;73.77;97699.00;18282375;32;20057;-59
2023/04/02 16:04:52;;;;;;;0.93;0.10;;;;;;;14.86;63.65;97696.34;18296138;32;20106;-59
2023/04/02 16:15:07;;;;;;;2.92;0.20;;;;;;;14.69;72.00;97724.09;18281879;32;20353;-59
2023/04/02 16:25:17;;;;;;;0.05;0.00;;;;;;;15.25;61.54;97736.00;18295289;32;20059;-59
2023/04/02 16:35:56;;;;;;;0.25;0.10;;;;;;;15.06;59.52;97738.75;18301627;32;20050;-59
2023/04/02 16:46:34;;;;;;;0.32;0.10;;;;;;;14.34;65.00;97756.12;18311776;32;20146;-59
2023/04/02 16:56:44;;;;;;;0.57;0.30;;;;;;;13.43;68.75;97759.59;18314727;32;20125;-59
2023/04/02 17:07:20;;;;;;;0.98;0.47;;;;;;;12.78;76.83;97763.38;18314454;32;20090;-59
2023/04/02 17:17:23;;;;;;;0.20;0.17;;;;;;;12.40;84.83;97773.91;18313921;32;20050;-59
2023/04/02 17:27:44;;;;;;;2.77;0.40;;;;;;;12.24;91.02;97790.25;18299503;32;20050;-59
2023/04/02 17:38:01;;;;;;;1.92;0.90;;;;;;;11.95;94.30;97801.75;18299197;32;20454;-59
2023/04/02 17:48:25;;;;;;;1.00;0.37;;;;;;;11.50;100.00;97823.19;18307600;32;20362;-59
2023/04/02 17:58:58;;;;;;;1.30;0.50;;;;;;;11.19;100.00;97830.50;18288140;32;20089;-59
2023/04/02 18:09:33;;;;;;;1.60;0.20;;;;;;;10.77;100.00;97847.75;18301475;32;20098;-59
2023/04/02 18:20:02;;;;;;;0.87;0.50;;;;;;;10.43;100.00;97856.28;18300864;32;20102;-58
2023/04/02 18:30:19;;;;;;;0.60;0.30;;;;;;;10.22;100.00;97868.88;18266612;32;20054;-58
2023/04/02 18:40:40;;;;;;;1.47;0.80;;;;;;;10.02;100.00;97881.19;18300035;32;20102;-59
2023/04/02 18:50:45;;;;;;;1.13;0.40;;;;;;;9.81;100.00;97896.44;18273299;32;20076;-59
2023/04/02 19:00:50;;;;;;;0.57;0.30;;;;;;;9.67;100.00;97912.28;18298252;32;20066;-59
2023/04/02 19:10:59;;;;;;;0.75;0.13;;;;;;;9.59;100.00;97926.25;18298561;32;20046;-59
2023/04/02 19:21:23;;;;;;;0.60;0.20;;;;;;;9.36;100.00;97936.31;18298113;32;20088;-59
2023/04/02 19:31:51;;;;;;;0.63;0.20;;;;;;;9.30;100.00;97958.91;18297586;32;20046;-59
2023/04/02 19:42:18;;;;;;;1.50;0.33;;;;;;;9.32;100.00;97968.41;18297046;32;20073;-59
2023/04/02 19:52:20;;;;;;;1.43;0.53;;;;;;;9.14;100.00;97985.75;18296620;32;20369;-59
2023/04/02 20:02:23;;;;;;;1.10;0.50;;;;;;;9.14;100.00;97988.44;18295945;32;20057;-59
2023/04/02 20:12:25;;;;;;;1.87;1.37;;;;;;;8.98;100.00;98005.50;18295532;32;20109;-59
2023/04/02 20:22:28;;;;;;;3.23;2.60;;;;;;;9.15;100.00;98021.63;18294957;32;20070;-59
2023/04/02 20:32:31;;;;;;;3.90;3.50;;;;;;;9.09;100.00;98034.22;18294228;32;20073;-59
2023/04/02 20:42:33;;;;;;;4.30;3.90;;;;;;;9.01;100.00;98039.25;18294258;32;20336;-59
2023/04/02 20:52:36;;;;;;;3.13;2.83;;;;;;;8.88;100.00;98053.91;18293925;32;20485;-59
2023/04/02 21:02:39;;;;;;;3.40;3.00;;;;;;;8.74;100.00;98057.00;18293614;32;20081;-59
2023/04/02 21:12:41;;;;;;;3.53;3.10;;;;;;;8.62;100.00;98064.37;18293279;32;20065;-59
2023/04/02 21:22:44;;;;;;;5.00;4.20;;;;;;;8.46;100.00;98072.19;18296927;32;20074;-58
2023/04/02 21:32:47;;;;;;;4.97;4.47;;;;;;;8.17;100.00;98089.47;18303053;32;20392;-59
2023/04/02 21:42:50;;;;;;;6.60;6.00;;;;;;;7.91;100.00;98102.53;18288861;32;20046;-59
2023/04/02 21:52:53;;;;;;;7.47;6.77;;;;;;;7.84;100.00;98097.28;18302322;32;20105;-58
2023/04/02 22:02:56;;;;;;;7.10;6.40;;;;;;;7.46;100.00;98102.22;18288108;32;20050;-58
2023/04/02 22:12:58;;;;;;;7.87;7.07;;;;;;;7.33;100.00;98110.59;18301316;32;20085;-58
2023/04/02 22:23:01;;;;;;;9.40;7.73;;;;;;;7.16;100.00;98120.44;18300886;32;20055;-58
2023/04/02 22:33:03;;;;;;;12.07;6.90;;;;;;;7.15;100.00;98126.87;18299929;32;20471;-58
2023/04/02 22:43:06;;;;;;;11.37;9.47;;;;;;;6.96;100.00;98135.06;18299975;32;20106;-58
2023/04/02 22:53:10;;;;;;;12.03;9.27;;;;;;;6.68;100.00;98133.91;18299464;32;20142;-58
2023/04/02 23:03:13;;;;;;;10.98;8.57;;;;;;;6.54;100.00;98143.25;18298764;32;20050;-58
2023/04/02 23:13:15;;;;;;;11.67;8.30;;;;;;;6.35;100.00;98139.84;18298269;32;20105;-58
2023/04/02 23:23:18;;;;;;;10.93;8.20;;;;;;;6.18;100.00;98153.09;18297942;32;20434;-59
2023/04/02 23:33:20;;;;;;;9.23;8.20;;;;;;;5.95;100.00;98151.97;18283432;32;20050;-59
2023/04/02 23:43:23;;;;;;;9.00;8.10;;;;;;;5.96;100.00;98158.97;18296677;32;20099;-59
2023/04/02 23:53:25;;;;;;;9.67;7.57;;;;;;;5.85;100.00;98163.25;18283489;32;20053;-59
